sensor_id;sensor_type;location;lat;lon;timestamp;P1;durP1;ratioP1;P2;durP2;ratioP2
15616;SDS011;7908;51.688;7.130;2023-06-22T00:01:31;4.95;;;3.83;;
15616;SDS011;7908;51.688;7.130;2023-06-22T00:04:03;5.18;;;4.30;;
15616;SDS011;7908;51.688;7.130;2023-06-22T00:06:33;6.53;;;4.40;;
15616;SDS011;7908;51.688;7.130;2023-06-22T00:09:03;6.45;;;5.18;;
15616;SDS011;7908;51.688;7.130;2023-06-22T00:11:33;5.47;;;4.30;;
15616;SDS011;7908;51.688;7.130;2023-06-22T00:14:03;5.53;;;4.60;;
15616;SDS011;7908;51.688;7.130;2023-06-22T00:16:33;6.20;;;4.93;;
15616;SDS011;7908;51.688;7.130;2023-06-22T00:19:03;5.25;;;4.60;;
15616;SDS011;7908;51.688;7.130;2023-06-22T00:21:32;7.93;;;5.32;;
15616;SDS011;7908;51.688;7.130;2023-06-22T00:24:02;8.80;;;5.70;;
15616;SDS011;7908;51.688;7.130;2023-06-22T00:26:33;6.90;;;5.25;;
15616;SDS011;7908;51.688;7.130;2023-06-22T00:29:05;5.50;;;5.00;;
15616;SDS011;7908;51.688;7.130;2023-06-22T00:31:34;6.47;;;5.15;;
15616;SDS011;7908;51.688;7.130;2023-06-22T00:34:04;7.90;;;6.32;;
15616;SDS011;7908;51.688;7.130;2023-06-22T00:36:35;6.75;;;5.55;;
15616;SDS011;7908;51.688;7.130;2023-06-22T00:39:10;7.35;;;5.63;;
15616;SDS011;7908;51.688;7.130;2023-06-22T00:41:41;6.43;;;5.82;;
15616;SDS011;7908;51.688;7.130;2023-06-22T00:44:10;6.53;;;5.70;;
15616;SDS011;7908;51.688;7.130;2023-06-22T00:46:43;7.10;;;5.80;;
15616;SDS011;7908;51.688;7.130;2023-06-22T00:49:12;5.20;;;4.70;;
15616;SDS011;7908;51.688;7.130;2023-06-22T00:51:41;6.18;;;5.50;;
15616;SDS011;7908;51.688;7.130;2023-06-22T00:54:13;6.40;;;5.53;;
15616;SDS011;7908;51.688;7.130;2023-06-22T00:56:43;6.40;;;5.43;;
15616;SDS011;7908;51.688;7.130;2023-06-22T00:59:15;7.55;;;5.22;;
15616;SDS011;7908;51.688;7.130;2023-06-22T01:01:45;6.63;;;5.45;;
15616;SDS011;7908;51.688;7.130;2023-06-22T01:04:14;7.55;;;5.70;;
15616;SDS011;7908;51.688;7.130;2023-06-22T01:06:47;8.73;;;6.53;;
15616;SDS011;7908;51.688;7.130;2023-06-22T01:09:26;7.70;;;6.90;;
15616;SDS011;7908;51.688;7.130;2023-06-22T01:12:01;8.82;;;6.80;;
15616;SDS011;7908;51.688;7.130;2023-06-22T01:14:35;7.53;;;6.45;;
15616;SDS011;7908;51.688;7.130;2023-06-22T01:17:08;7.90;;;7.05;;
15616;SDS011;7908;51.688;7.130;2023-06-22T01:19:44;7.68;;;6.97;;
15616;SDS011;7908;51.688;7.130;2023-06-22T01:22:16;7.45;;;6.65;;
15616;SDS011;7908;51.688;7.130;2023-06-22T01:24:51;7.53;;;6.72;;
15616;SDS011;7908;51.688;7.130;2023-06-22T01:27:33;8.63;;;6.60;;
15616;SDS011;7908;51.688;7.130;2023-06-22T01:30:13;9.43;;;7.60;;
15616;SDS011;7908;51.688;7.130;2023-06-22T01:32:45;9.68;;;7.28;;
15616;SDS011;7908;51.688;7.130;2023-06-22T01:35:14;8.75;;;7.63;;
15616;SDS011;7908;51.688;7.130;2023-06-22T01:37:44;9.18;;;7.78;;
15616;SDS011;7908;51.688;7.130;2023-06-22T01:40:13;9.43;;;7.30;;
15616;SDS011;7908;51.688;7.130;2023-06-22T01:42:43;9.48;;;8.50;;
15616;SDS011;7908;51.688;7.130;2023-06-22T01:45:23;9.15;;;7.32;;
15616;SDS011;7908;51.688;7.130;2023-06-22T01:47:54;8.60;;;7.80;;
15616;SDS011;7908;51.688;7.130;2023-06-22T01:50:24;8.10;;;7.30;;
15616;SDS011;7908;51.688;7.130;2023-06-22T01:52:53;9.13;;;7.57;;
15616;SDS011;7908;51.688;7.130;2023-06-22T01:55:23;11.05;;;7.78;;
15616;SDS011;7908;51.688;7.130;2023-06-22T01:57:52;9.23;;;7.50;;
15616;SDS011;7908;51.688;7.130;2023-06-22T02:00:23;10.88;;;7.28;;
15616;SDS011;7908;51.688;7.130;2023-06-22T02:02:59;11.25;;;8.73;;
15616;SDS011;7908;51.688;7.130;2023-06-22T02:05:34;8.38;;;7.32;;
15616;SDS011;7908;51.688;7.130;2023-06-22T02:08:09;12.03;;;7.60;;
15616;SDS011;7908;51.688;7.130;2023-06-22T02:10:43;10.85;;;8.65;;
15616;SDS011;7908;51.688;7.130;2023-06-22T02:13:13;9.93;;;8.93;;
15616;SDS011;7908;51.688;7.130;2023-06-22T02:15:45;10.27;;;9.18;;
15616;SDS011;7908;51.688;7.130;2023-06-22T02:18:16;12.17;;;9.00;;
15616;SDS011;7908;51.688;7.130;2023-06-22T02:20:44;10.68;;;8.40;;
15616;SDS011;7908;51.688;7.130;2023-06-22T02:23:13;12.15;;;8.98;;
15616;SDS011;7908;51.688;7.130;2023-06-22T02:25:42;9.70;;;8.77;;
15616;SDS011;7908;51.688;7.130;2023-06-22T02:28:11;8.80;;;7.90;;
15616;SDS011;7908;51.688;7.130;2023-06-22T02:30:40;10.27;;;8.83;;
15616;SDS011;7908;51.688;7.130;2023-06-22T02:33:11;9.40;;;8.30;;
15616;SDS011;7908;51.688;7.130;2023-06-22T02:35:40;10.55;;;9.32;;
15616;SDS011;7908;51.688;7.130;2023-06-22T02:38:12;10.73;;;8.57;;
15616;SDS011;7908;51.688;7.130;2023-06-22T02:40:41;11.50;;;9.57;;
15616;SDS011;7908;51.688;7.130;2023-06-22T02:43:10;13.48;;;9.32;;
15616;SDS011;7908;51.688;7.130;2023-06-22T02:45:39;10.95;;;9.27;;
15616;SDS011;7908;51.688;7.130;2023-06-22T02:48:09;10.80;;;8.63;;
15616;SDS011;7908;51.688;7.130;2023-06-22T02:50:40;12.50;;;9.87;;
15616;SDS011;7908;51.688;7.130;2023-06-22T02:53:09;12.27;;;10.25;;
15616;SDS011;7908;51.688;7.130;2023-06-22T02:55:38;11.32;;;10.10;;
15616;SDS011;7908;51.688;7.130;2023-06-22T02:58:08;9.70;;;8.70;;
15616;SDS011;7908;51.688;7.130;2023-06-22T03:00:37;12.07;;;10.57;;
15616;SDS011;7908;51.688;7.130;2023-06-22T03:03:06;11.30;;;10.20;;
15616;SDS011;7908;51.688;7.130;2023-06-22T03:05:37;14.13;;;10.48;;
15616;SDS011;7908;51.688;7.130;2023-06-22T03:08:07;12.80;;;10.87;;
15616;SDS011;7908;51.688;7.130;2023-06-22T03:10:36;11.57;;;10.37;;
15616;SDS011;7908;51.688;7.130;2023-06-22T03:13:05;11.10;;;10.07;;
15616;SDS011;7908;51.688;7.130;2023-06-22T03:15:35;15.73;;;10.17;;
15616;SDS011;7908;51.688;7.130;2023-06-22T03:18:04;12.77;;;11.27;;
15616;SDS011;7908;51.688;7.130;2023-06-22T03:20:34;14.43;;;10.43;;
15616;SDS011;7908;51.688;7.130;2023-06-22T03:23:04;11.63;;;10.10;;
15616;SDS011;7908;51.688;7.130;2023-06-22T03:25:36;12.20;;;10.57;;
15616;SDS011;7908;51.688;7.130;2023-06-22T03:28:06;11.27;;;10.17;;
15616;SDS011;7908;51.688;7.130;2023-06-22T03:30:36;10.77;;;9.67;;
15616;SDS011;7908;51.688;7.130;2023-06-22T03:33:05;10.98;;;9.88;;
15616;SDS011;7908;51.688;7.130;2023-06-22T03:35:34;10.70;;;9.68;;
15616;SDS011;7908;51.688;7.130;2023-06-22T03:38:05;10.80;;;9.80;;
15616;SDS011;7908;51.688;7.130;2023-06-22T03:40:34;11.20;;;9.80;;
15616;SDS011;7908;51.688;7.130;2023-06-22T03:43:04;16.60;;;9.83;;
15616;SDS011;7908;51.688;7.130;2023-06-22T03:45:33;9.97;;;8.87;;
15616;SDS011;7908;51.688;7.130;2023-06-22T03:48:04;10.67;;;9.57;;
15616;SDS011;7908;51.688;7.130;2023-06-22T03:50:38;11.67;;;10.13;;
15616;SDS011;7908;51.688;7.130;2023-06-22T03:53:07;11.90;;;9.90;;
15616;SDS011;7908;51.688;7.130;2023-06-22T03:55:37;10.60;;;8.83;;
15616;SDS011;7908;51.688;7.130;2023-06-22T03:58:08;11.60;;;9.27;;
15616;SDS011;7908;51.688;7.130;2023-06-22T04:00:39;10.77;;;9.17;;
15616;SDS011;7908;51.688;7.130;2023-06-22T04:03:08;14.53;;;9.97;;
15616;SDS011;7908;51.688;7.130;2023-06-22T04:05:40;11.30;;;10.20;;
15616;SDS011;7908;51.688;7.130;2023-06-22T04:08:09;10.23;;;9.17;;
15616;SDS011;7908;51.688;7.130;2023-06-22T04:10:39;11.60;;;10.43;;
15616;SDS011;7908;51.688;7.130;2023-06-22T04:13:08;10.87;;;9.77;;
15616;SDS011;7908;51.688;7.130;2023-06-22T04:15:37;10.90;;;9.07;;
15616;SDS011;7908;51.688;7.130;2023-06-22T04:18:06;10.57;;;9.47;;
15616;SDS011;7908;51.688;7.130;2023-06-22T04:20:36;13.18;;;10.77;;
15616;SDS011;7908;51.688;7.130;2023-06-22T04:23:06;10.93;;;9.77;;
15616;SDS011;7908;51.688;7.130;2023-06-22T04:25:35;12.80;;;10.73;;
15616;SDS011;7908;51.688;7.130;2023-06-22T04:28:04;14.00;;;12.52;;
15616;SDS011;7908;51.688;7.130;2023-06-22T04:30:39;14.05;;;12.65;;
15616;SDS011;7908;51.688;7.130;2023-06-22T04:33:13;16.58;;;12.98;;
15616;SDS011;7908;51.688;7.130;2023-06-22T04:35:44;16.33;;;13.90;;
15616;SDS011;7908;51.688;7.130;2023-06-22T04:38:14;16.92;;;14.55;;
15616;SDS011;7908;51.688;7.130;2023-06-22T04:40:43;16.80;;;13.90;;
15616;SDS011;7908;51.688;7.130;2023-06-22T04:43:13;16.65;;;13.93;;
15616;SDS011;7908;51.688;7.130;2023-06-22T04:45:42;19.15;;;14.07;;
15616;SDS011;7908;51.688;7.130;2023-06-22T04:48:12;15.43;;;13.85;;
15616;SDS011;7908;51.688;7.130;2023-06-22T04:50:43;15.43;;;13.90;;
15616;SDS011;7908;51.688;7.130;2023-06-22T04:53:12;15.60;;;13.50;;
15616;SDS011;7908;51.688;7.130;2023-06-22T04:55:42;13.40;;;12.10;;
15616;SDS011;7908;51.688;7.130;2023-06-22T04:58:12;13.90;;;12.15;;
15616;SDS011;7908;51.688;7.130;2023-06-22T05:00:41;14.88;;;11.30;;
15616;SDS011;7908;51.688;7.130;2023-06-22T05:03:11;12.30;;;11.05;;
15616;SDS011;7908;51.688;7.130;2023-06-22T05:05:46;12.25;;;10.40;;
15616;SDS011;7908;51.688;7.130;2023-06-22T05:08:16;11.23;;;10.05;;
15616;SDS011;7908;51.688;7.130;2023-06-22T05:10:46;11.93;;;10.80;;
15616;SDS011;7908;51.688;7.130;2023-06-22T05:13:30;12.45;;;11.15;;
15616;SDS011;7908;51.688;7.130;2023-06-22T05:16:01;12.02;;;10.80;;
15616;SDS011;7908;51.688;7.130;2023-06-22T05:18:33;11.55;;;9.50;;
15616;SDS011;7908;51.688;7.130;2023-06-22T05:21:03;11.32;;;9.02;;
15616;SDS011;7908;51.688;7.130;2023-06-22T05:23:33;10.73;;;9.60;;
15616;SDS011;7908;51.688;7.130;2023-06-22T05:26:04;12.90;;;10.77;;
15616;SDS011;7908;51.688;7.130;2023-06-22T05:31:59;11.38;;;10.18;;
15616;SDS011;7908;51.688;7.130;2023-06-22T05:34:29;14.77;;;11.77;;
15616;SDS011;7908;51.688;7.130;2023-06-22T05:37:01;12.00;;;10.73;;
15616;SDS011;7908;51.688;7.130;2023-06-22T05:39:30;12.15;;;10.60;;
15616;SDS011;7908;51.688;7.130;2023-06-22T05:42:05;11.98;;;10.52;;
15616;SDS011;7908;51.688;7.130;2023-06-22T05:44:37;12.10;;;10.13;;
15616;SDS011;7908;51.688;7.130;2023-06-22T05:47:07;11.30;;;10.02;;
15616;SDS011;7908;51.688;7.130;2023-06-22T05:49:40;11.38;;;10.27;;
15616;SDS011;7908;51.688;7.130;2023-06-22T05:52:12;11.75;;;10.55;;
15616;SDS011;7908;51.688;7.130;2023-06-22T05:54:41;13.52;;;10.38;;
15616;SDS011;7908;51.688;7.130;2023-06-22T05:57:12;13.90;;;10.73;;
15616;SDS011;7908;51.688;7.130;2023-06-22T05:59:42;11.00;;;9.90;;
15616;SDS011;7908;51.688;7.130;2023-06-22T06:02:10;10.85;;;9.70;;
15616;SDS011;7908;51.688;7.130;2023-06-22T06:04:41;11.45;;;10.25;;
15616;SDS011;7908;51.688;7.130;2023-06-22T06:07:10;13.23;;;10.95;;
15616;SDS011;7908;51.688;7.130;2023-06-22T06:09:39;12.82;;;10.48;;
15616;SDS011;7908;51.688;7.130;2023-06-22T06:12:08;12.57;;;11.18;;
15616;SDS011;7908;51.688;7.130;2023-06-22T06:14:40;12.25;;;10.77;;
15616;SDS011;7908;51.688;7.130;2023-06-22T06:17:09;13.77;;;11.55;;
15616;SDS011;7908;51.688;7.130;2023-06-22T06:19:38;10.93;;;9.82;;
15616;SDS011;7908;51.688;7.130;2023-06-22T06:22:07;11.55;;;9.75;;
15616;SDS011;7908;51.688;7.130;2023-06-22T06:24:38;14.02;;;11.00;;
15616;SDS011;7908;51.688;7.130;2023-06-22T06:27:08;11.25;;;9.93;;
15616;SDS011;7908;51.688;7.130;2023-06-22T06:29:36;10.35;;;9.30;;
15616;SDS011;7908;51.688;7.130;2023-06-22T06:32:07;15.85;;;11.57;;
15616;SDS011;7908;51.688;7.130;2023-06-22T06:34:37;11.52;;;10.10;;
15616;SDS011;7908;51.688;7.130;2023-06-22T06:37:07;10.15;;;9.15;;
15616;SDS011;7908;51.688;7.130;2023-06-22T06:39:35;12.60;;;10.00;;
15616;SDS011;7908;51.688;7.130;2023-06-22T06:42:04;12.80;;;10.48;;
15616;SDS011;7908;51.688;7.130;2023-06-22T06:44:37;13.05;;;10.98;;
15616;SDS011;7908;51.688;7.130;2023-06-22T06:47:07;14.98;;;11.45;;
15616;SDS011;7908;51.688;7.130;2023-06-22T06:49:41;12.45;;;10.50;;
15616;SDS011;7908;51.688;7.130;2023-06-22T06:52:12;12.10;;;10.82;;
15616;SDS011;7908;51.688;7.130;2023-06-22T06:54:40;12.68;;;11.38;;
15616;SDS011;7908;51.688;7.130;2023-06-22T06:57:10;13.98;;;12.57;;
15616;SDS011;7908;51.688;7.130;2023-06-22T06:59:40;17.25;;;13.00;;
15616;SDS011;7908;51.688;7.130;2023-06-22T07:02:12;14.77;;;13.27;;
15616;SDS011;7908;51.688;7.130;2023-06-22T07:04:41;18.38;;;14.77;;
15616;SDS011;7908;51.688;7.130;2023-06-22T07:07:10;15.02;;;13.38;;
15616;SDS011;7908;51.688;7.130;2023-06-22T07:09:39;15.18;;;13.52;;
15616;SDS011;7908;51.688;7.130;2023-06-22T07:12:09;15.82;;;13.77;;
15616;SDS011;7908;51.688;7.130;2023-06-22T07:14:39;14.45;;;12.90;;
15616;SDS011;7908;51.688;7.130;2023-06-22T07:17:09;16.08;;;13.10;;
15616;SDS011;7908;51.688;7.130;2023-06-22T07:19:39;15.65;;;13.02;;
15616;SDS011;7908;51.688;7.130;2023-06-22T07:22:09;15.90;;;14.02;;
15616;SDS011;7908;51.688;7.130;2023-06-22T07:24:39;16.00;;;13.60;;
15616;SDS011;7908;51.688;7.130;2023-06-22T07:27:09;14.02;;;12.38;;
15616;SDS011;7908;51.688;7.130;2023-06-22T07:29:39;14.38;;;12.88;;
15616;SDS011;7908;51.688;7.130;2023-06-22T07:32:10;15.63;;;12.93;;
15616;SDS011;7908;51.688;7.130;2023-06-22T07:34:41;16.85;;;12.77;;
15616;SDS011;7908;51.688;7.130;2023-06-22T07:37:11;14.68;;;13.15;;
15616;SDS011;7908;51.688;7.130;2023-06-22T07:39:40;14.32;;;12.80;;
15616;SDS011;7908;51.688;7.130;2023-06-22T07:42:13;13.68;;;10.70;;
15616;SDS011;7908;51.688;7.130;2023-06-22T07:44:46;18.10;;;12.38;;
15616;SDS011;7908;51.688;7.130;2023-06-22T07:47:15;14.50;;;13.02;;
15616;SDS011;7908;51.688;7.130;2023-06-22T07:49:49;14.10;;;12.45;;
15616;SDS011;7908;51.688;7.130;2023-06-22T07:52:18;13.85;;;12.18;;
15616;SDS011;7908;51.688;7.130;2023-06-22T07:54:47;14.27;;;12.38;;
15616;SDS011;7908;51.688;7.130;2023-06-22T07:57:17;14.00;;;12.60;;
15616;SDS011;7908;51.688;7.130;2023-06-22T07:59:46;10.88;;;9.77;;
15616;SDS011;7908;51.688;7.130;2023-06-22T08:02:16;13.07;;;11.65;;
15616;SDS011;7908;51.688;7.130;2023-06-22T08:04:45;17.10;;;12.77;;
15616;SDS011;7908;51.688;7.130;2023-06-22T08:07:17;13.45;;;12.15;;
15616;SDS011;7908;51.688;7.130;2023-06-22T08:09:48;13.15;;;11.52;;
15616;SDS011;7908;51.688;7.130;2023-06-22T08:12:17;13.70;;;11.63;;
15616;SDS011;7908;51.688;7.130;2023-06-22T08:14:47;14.73;;;12.50;;
15616;SDS011;7908;51.688;7.130;2023-06-22T08:17:17;13.70;;;11.77;;
15616;SDS011;7908;51.688;7.130;2023-06-22T08:19:46;13.48;;;12.07;;
15616;SDS011;7908;51.688;7.130;2023-06-22T08:22:20;12.35;;;10.85;;
15616;SDS011;7908;51.688;7.130;2023-06-22T08:24:50;14.45;;;11.43;;
15616;SDS011;7908;51.688;7.130;2023-06-22T08:27:23;11.77;;;10.60;;
15616;SDS011;7908;51.688;7.130;2023-06-22T08:29:55;12.35;;;11.05;;
15616;SDS011;7908;51.688;7.130;2023-06-22T08:32:26;12.55;;;9.70;;
15616;SDS011;7908;51.688;7.130;2023-06-22T08:34:56;13.73;;;11.35;;
15616;SDS011;7908;51.688;7.130;2023-06-22T08:37:27;12.77;;;11.40;;
15616;SDS011;7908;51.688;7.130;2023-06-22T08:39:59;13.65;;;11.07;;
15616;SDS011;7908;51.688;7.130;2023-06-22T08:42:40;13.10;;;11.80;;
15616;SDS011;7908;51.688;7.130;2023-06-22T08:45:11;11.38;;;10.18;;
15616;SDS011;7908;51.688;7.130;2023-06-22T08:47:45;12.90;;;11.10;;
15616;SDS011;7908;51.688;7.130;2023-06-22T08:50:15;15.77;;;10.80;;
15616;SDS011;7908;51.688;7.130;2023-06-22T08:52:48;10.88;;;9.77;;
15616;SDS011;7908;51.688;7.130;2023-06-22T08:55:24;11.23;;;10.13;;
15616;SDS011;7908;51.688;7.130;2023-06-22T08:57:56;13.15;;;10.98;;
15616;SDS011;7908;51.688;7.130;2023-06-22T09:00:27;11.88;;;10.63;;
15616;SDS011;7908;51.688;7.130;2023-06-22T09:03:01;12.50;;;11.27;;
15616;SDS011;7908;51.688;7.130;2023-06-22T09:05:33;12.50;;;10.85;;
15616;SDS011;7908;51.688;7.130;2023-06-22T09:08:05;12.63;;;10.02;;
15616;SDS011;7908;51.688;7.130;2023-06-22T09:10:34;11.55;;;10.35;;
15616;SDS011;7908;51.688;7.130;2023-06-22T09:13:04;14.02;;;10.60;;
15616;SDS011;7908;51.688;7.130;2023-06-22T09:15:34;12.30;;;10.93;;
15616;SDS011;7908;51.688;7.130;2023-06-22T09:18:16;11.40;;;10.30;;
15616;SDS011;7908;51.688;7.130;2023-06-22T09:20:45;12.52;;;10.25;;
15616;SDS011;7908;51.688;7.130;2023-06-22T09:23:17;11.90;;;10.00;;
15616;SDS011;7908;51.688;7.130;2023-06-22T09:25:48;11.52;;;8.75;;
15616;SDS011;7908;51.688;7.130;2023-06-22T09:28:20;11.63;;;9.88;;
15616;SDS011;7908;51.688;7.130;2023-06-22T09:30:51;11.07;;;9.90;;
15616;SDS011;7908;51.688;7.130;2023-06-22T09:33:26;10.55;;;9.55;;
15616;SDS011;7908;51.688;7.130;2023-06-22T09:35:57;12.90;;;10.68;;
15616;SDS011;7908;51.688;7.130;2023-06-22T09:38:30;11.45;;;10.25;;
15616;SDS011;7908;51.688;7.130;2023-06-22T09:41:03;10.25;;;9.18;;
15616;SDS011;7908;51.688;7.130;2023-06-22T09:43:33;10.23;;;9.23;;
15616;SDS011;7908;51.688;7.130;2023-06-22T09:46:06;10.25;;;9.25;;
15616;SDS011;7908;51.688;7.130;2023-06-22T09:48:38;11.25;;;10.15;;
15616;SDS011;7908;51.688;7.130;2023-06-22T09:51:13;12.95;;;10.43;;
15616;SDS011;7908;51.688;7.130;2023-06-22T09:53:52;13.13;;;9.98;;
15616;SDS011;7908;51.688;7.130;2023-06-22T09:56:23;10.40;;;9.30;;
15616;SDS011;7908;51.688;7.130;2023-06-22T09:58:55;11.73;;;9.57;;
15616;SDS011;7908;51.688;7.130;2023-06-22T10:01:41;10.38;;;8.75;;
15616;SDS011;7908;51.688;7.130;2023-06-22T10:04:11;10.13;;;9.13;;
15616;SDS011;7908;51.688;7.130;2023-06-22T10:06:41;10.25;;;8.25;;
15616;SDS011;7908;51.688;7.130;2023-06-22T10:09:12;9.55;;;8.55;;
15616;SDS011;7908;51.688;7.130;2023-06-22T10:11:42;9.77;;;8.75;;
15616;SDS011;7908;51.688;7.130;2023-06-22T10:14:11;11.60;;;9.90;;
15616;SDS011;7908;51.688;7.130;2023-06-22T10:16:42;11.75;;;9.52;;
15616;SDS011;7908;51.688;7.130;2023-06-22T10:19:14;10.25;;;9.18;;
15616;SDS011;7908;51.688;7.130;2023-06-22T10:21:47;9.65;;;8.75;;
15616;SDS011;7908;51.688;7.130;2023-06-22T10:24:22;10.75;;;9.75;;
15616;SDS011;7908;51.688;7.130;2023-06-22T10:27:00;11.75;;;10.00;;
15616;SDS011;7908;51.688;7.130;2023-06-22T10:29:31;9.77;;;8.85;;
15616;SDS011;7908;51.688;7.130;2023-06-22T10:32:02;10.80;;;8.60;;
15616;SDS011;7908;51.688;7.130;2023-06-22T10:34:35;10.35;;;8.52;;
15616;SDS011;7908;51.688;7.130;2023-06-22T10:37:18;9.77;;;8.18;;
15616;SDS011;7908;51.688;7.130;2023-06-22T10:39:49;8.90;;;8.02;;
15616;SDS011;7908;51.688;7.130;2023-06-22T10:42:21;8.98;;;8.07;;
15616;SDS011;7908;51.688;7.130;2023-06-22T10:44:51;9.90;;;8.90;;
15616;SDS011;7908;51.688;7.130;2023-06-22T10:47:24;11.27;;;8.23;;
15616;SDS011;7908;51.688;7.130;2023-06-22T10:49:54;10.02;;;9.05;;
15616;SDS011;7908;51.688;7.130;2023-06-22T10:52:24;10.02;;;8.98;;
15616;SDS011;7908;51.688;7.130;2023-06-22T10:54:57;9.02;;;8.10;;
15616;SDS011;7908;51.688;7.130;2023-06-22T10:57:34;8.90;;;8.00;;
15616;SDS011;7908;51.688;7.130;2023-06-22T11:00:08;10.48;;;8.50;;
15616;SDS011;7908;51.688;7.130;2023-06-22T11:02:39;9.10;;;8.25;;
15616;SDS011;7908;51.688;7.130;2023-06-22T11:05:16;8.77;;;7.97;;
15616;SDS011;7908;51.688;7.130;2023-06-22T11:07:46;10.05;;;7.95;;
15616;SDS011;7908;51.688;7.130;2023-06-22T11:10:19;8.30;;;7.30;;
15616;SDS011;7908;51.688;7.130;2023-06-22T11:12:55;8.43;;;7.60;;
15616;SDS011;7908;51.688;7.130;2023-06-22T11:15:38;9.65;;;7.65;;
15616;SDS011;7908;51.688;7.130;2023-06-22T11:18:11;8.80;;;7.90;;
15616;SDS011;7908;51.688;7.130;2023-06-22T11:20:44;8.80;;;8.00;;
15616;SDS011;7908;51.688;7.130;2023-06-22T11:23:21;9.27;;;8.27;;
15616;SDS011;7908;51.688;7.130;2023-06-22T11:25:55;8.65;;;7.85;;
15616;SDS011;7908;51.688;7.130;2023-06-22T11:28:25;10.45;;;8.00;;
15616;SDS011;7908;51.688;7.130;2023-06-22T11:30:56;11.10;;;9.02;;
15616;SDS011;7908;51.688;7.130;2023-06-22T11:33:37;10.57;;;8.27;;
15616;SDS011;7908;51.688;7.130;2023-06-22T11:36:06;10.32;;;8.63;;
15616;SDS011;7908;51.688;7.130;2023-06-22T11:38:42;10.50;;;9.15;;
15616;SDS011;7908;51.688;7.130;2023-06-22T11:41:17;12.00;;;9.75;;
15616;SDS011;7908;51.688;7.130;2023-06-22T11:44:08;10.93;;;9.48;;
15616;SDS011;7908;51.688;7.130;2023-06-22T11:46:38;10.32;;;9.23;;
15616;SDS011;7908;51.688;7.130;2023-06-22T11:49:09;12.27;;;9.38;;
15616;SDS011;7908;51.688;7.130;2023-06-22T11:51:40;12.13;;;10.07;;
15616;SDS011;7908;51.688;7.130;2023-06-22T11:54:18;10.35;;;9.35;;
15616;SDS011;7908;51.688;7.130;2023-06-22T11:56:51;13.77;;;10.32;;
15616;SDS011;7908;51.688;7.130;2023-06-22T11:59:25;12.20;;;10.95;;
15616;SDS011;7908;51.688;7.130;2023-06-22T12:01:55;10.38;;;9.43;;
15616;SDS011;7908;51.688;7.130;2023-06-22T12:04:36;13.82;;;11.48;;
15616;SDS011;7908;51.688;7.130;2023-06-22T12:07:08;12.63;;;11.18;;
15616;SDS011;7908;51.688;7.130;2023-06-22T12:09:40;14.27;;;12.60;;
15616;SDS011;7908;51.688;7.130;2023-06-22T12:12:20;16.23;;;12.68;;
15616;SDS011;7908;51.688;7.130;2023-06-22T12:14:51;14.77;;;13.32;;
15616;SDS011;7908;51.688;7.130;2023-06-22T12:17:27;15.43;;;13.88;;
15616;SDS011;7908;51.688;7.130;2023-06-22T12:19:58;16.67;;;15.18;;
15616;SDS011;7908;51.688;7.130;2023-06-22T12:22:32;19.95;;;17.27;;
15616;SDS011;7908;51.688;7.130;2023-06-22T12:25:06;19.80;;;17.85;;
15616;SDS011;7908;51.688;7.130;2023-06-22T12:27:42;21.27;;;19.00;;
15616;SDS011;7908;51.688;7.130;2023-06-22T12:30:12;23.98;;;21.20;;
15616;SDS011;7908;51.688;7.130;2023-06-22T12:32:41;27.17;;;22.88;;
15616;SDS011;7908;51.688;7.130;2023-06-22T12:35:11;25.60;;;22.90;;
15616;SDS011;7908;51.688;7.130;2023-06-22T12:37:41;27.52;;;24.02;;
15616;SDS011;7908;51.688;7.130;2023-06-22T12:40:13;29.20;;;25.38;;
15616;SDS011;7908;51.688;7.130;2023-06-22T12:42:46;29.00;;;25.67;;
15616;SDS011;7908;51.688;7.130;2023-06-22T12:45:16;29.55;;;26.08;;
15616;SDS011;7908;51.688;7.130;2023-06-22T12:47:48;29.20;;;26.13;;
15616;SDS011;7908;51.688;7.130;2023-06-22T12:50:19;32.17;;;28.73;;
15616;SDS011;7908;51.688;7.130;2023-06-22T12:52:50;31.17;;;27.98;;
15616;SDS011;7908;51.688;7.130;2023-06-22T12:55:19;31.33;;;28.15;;
15616;SDS011;7908;51.688;7.130;2023-06-22T12:57:50;32.42;;;29.13;;
15616;SDS011;7908;51.688;7.130;2023-06-22T13:00:20;31.73;;;28.52;;
15616;SDS011;7908;51.688;7.130;2023-06-22T13:02:52;33.85;;;29.90;;
15616;SDS011;7908;51.688;7.130;2023-06-22T13:05:23;32.47;;;29.17;;
15616;SDS011;7908;51.688;7.130;2023-06-22T13:08:00;30.08;;;26.80;;
15616;SDS011;7908;51.688;7.130;2023-06-22T13:10:39;27.85;;;25.15;;
15616;SDS011;7908;51.688;7.130;2023-06-22T13:13:17;31.65;;;28.00;;
15616;SDS011;7908;51.688;7.130;2023-06-22T13:15:47;27.67;;;24.77;;
15616;SDS011;7908;51.688;7.130;2023-06-22T13:18:16;26.33;;;23.73;;
15616;SDS011;7908;51.688;7.130;2023-06-22T13:20:46;29.52;;;26.63;;
15616;SDS011;7908;51.688;7.130;2023-06-22T13:23:19;28.63;;;25.63;;
15616;SDS011;7908;51.688;7.130;2023-06-22T13:25:50;27.40;;;24.63;;
15616;SDS011;7908;51.688;7.130;2023-06-22T13:28:23;26.75;;;24.10;;
15616;SDS011;7908;51.688;7.130;2023-06-22T13:30:55;27.88;;;25.00;;
15616;SDS011;7908;51.688;7.130;2023-06-22T13:33:29;25.30;;;22.70;;
15616;SDS011;7908;51.688;7.130;2023-06-22T13:36:02;25.73;;;23.02;;
15616;SDS011;7908;51.688;7.130;2023-06-22T13:52:11;31.50;;;28.30;;
15616;SDS011;7908;51.688;7.130;2023-06-22T13:54:42;33.13;;;29.55;;
15616;SDS011;7908;51.688;7.130;2023-06-22T13:57:17;34.03;;;30.52;;
15616;SDS011;7908;51.688;7.130;2023-06-22T13:59:52;35.00;;;31.30;;
15616;SDS011;7908;51.688;7.130;2023-06-22T14:02:22;34.20;;;30.70;;
15616;SDS011;7908;51.688;7.130;2023-06-22T14:04:51;36.03;;;31.92;;
15616;SDS011;7908;51.688;7.130;2023-06-22T14:07:30;35.00;;;31.38;;
15616;SDS011;7908;51.688;7.130;2023-06-22T14:10:01;32.40;;;29.15;;
15616;SDS011;7908;51.688;7.130;2023-06-22T14:12:33;35.33;;;31.77;;
15616;SDS011;7908;51.688;7.130;2023-06-22T14:15:03;37.05;;;31.02;;
15616;SDS011;7908;51.688;7.130;2023-06-22T14:17:34;33.35;;;29.95;;
15616;SDS011;7908;51.688;7.130;2023-06-22T14:20:04;31.98;;;28.77;;
15616;SDS011;7908;51.688;7.130;2023-06-22T14:22:37;28.63;;;25.42;;
15616;SDS011;7908;51.688;7.130;2023-06-22T14:25:08;28.55;;;25.65;;
15616;SDS011;7908;51.688;7.130;2023-06-22T14:27:38;27.45;;;24.75;;
15616;SDS011;7908;51.688;7.130;2023-06-22T14:30:08;28.17;;;25.58;;
15616;SDS011;7908;51.688;7.130;2023-06-22T14:32:40;25.67;;;23.25;;
15616;SDS011;7908;51.688;7.130;2023-06-22T14:35:12;27.27;;;24.58;;
15616;SDS011;7908;51.688;7.130;2023-06-22T14:37:43;24.58;;;22.25;;
15616;SDS011;7908;51.688;7.130;2023-06-22T14:40:14;26.85;;;24.13;;
15616;SDS011;7908;51.688;7.130;2023-06-22T14:42:48;26.88;;;24.05;;
15616;SDS011;7908;51.688;7.130;2023-06-22T14:45:18;25.48;;;22.98;;
15616;SDS011;7908;51.688;7.130;2023-06-22T14:47:51;25.70;;;23.13;;
15616;SDS011;7908;51.688;7.130;2023-06-22T14:50:23;28.10;;;25.27;;
15616;SDS011;7908;51.688;7.130;2023-06-22T14:52:55;24.90;;;22.35;;
15616;SDS011;7908;51.688;7.130;2023-06-22T14:55:24;24.75;;;22.00;;
15616;SDS011;7908;51.688;7.130;2023-06-22T14:57:54;26.02;;;23.52;;
15616;SDS011;7908;51.688;7.130;2023-06-22T15:00:33;24.52;;;21.95;;
15616;SDS011;7908;51.688;7.130;2023-06-22T15:03:03;25.52;;;22.92;;
15616;SDS011;7908;51.688;7.130;2023-06-22T15:05:35;25.65;;;23.05;;
15616;SDS011;7908;51.688;7.130;2023-06-22T15:08:08;25.30;;;22.85;;
15616;SDS011;7908;51.688;7.130;2023-06-22T15:10:37;23.58;;;21.13;;
15616;SDS011;7908;51.688;7.130;2023-06-22T15:13:07;24.50;;;22.20;;
15616;SDS011;7908;51.688;7.130;2023-06-22T15:15:36;23.92;;;21.63;;
15616;SDS011;7908;51.688;7.130;2023-06-22T15:18:10;23.83;;;21.38;;
15616;SDS011;7908;51.688;7.130;2023-06-22T15:20:43;25.42;;;22.35;;
15616;SDS011;7908;51.688;7.130;2023-06-22T15:23:19;24.90;;;22.52;;
15616;SDS011;7908;51.688;7.130;2023-06-22T15:25:49;23.30;;;21.08;;